sensor_id;sensor_type;location;lat;lon;timestamp;pressure;altitude;pressure_sealevel;temperature;humidity
7480;BME280;3781;42.272;22.658;2022-09-20T00:00:34;94659.66;;;9.13;nan
7480;BME280;3781;42.272;22.658;2022-09-20T00:03:01;94655.97;;;8.94;nan
7480;BME280;3781;42.272;22.658;2022-09-20T00:05:32;94641.09;;;8.76;nan
7480;BME280;3781;42.272;22.658;2022-09-20T00:07:59;94662.97;;;8.83;nan
7480;BME280;3781;42.272;22.658;2022-09-20T00:10:26;94667.81;;;8.76;nan
7480;BME280;3781;42.272;22.658;2022-09-20T00:12:52;94646.16;;;8.66;nan
7480;BME280;3781;42.272;22.658;2022-09-20T00:15:19;94657.22;;;8.68;nan
7480;BME280;3781;42.272;22.658;2022-09-20T00:17:46;94662.91;;;8.51;nan
7480;BME280;3781;42.272;22.658;2022-09-20T00:20:13;94641.50;;;8.05;nan
7480;BME280;3781;42.272;22.658;2022-09-20T00:22:41;94667.84;;;8.10;nan
7480;BME280;3781;42.272;22.658;2022-09-20T00:25:08;94641.88;;;8.00;nan
7480;BME280;3781;42.272;22.658;2022-09-20T00:27:35;94665.75;;;8.15;nan
7480;BME280;3781;42.272;22.658;2022-09-20T00:30:02;94648.81;;;8.11;nan
7480;BME280;3781;42.272;22.658;2022-09-20T00:32:30;94647.16;;;8.43;nan
7480;BME280;3781;42.272;22.658;2022-09-20T00:34:56;94660.06;;;8.65;nan
7480;BME280;3781;42.272;22.658;2022-09-20T00:37:36;94656.66;;;8.65;nan
7480;BME280;3781;42.272;22.658;2022-09-20T00:40:07;94634.19;;;8.65;nan
7480;BME280;3781;42.272;22.658;2022-09-20T00:42:35;94641.41;;;8.82;nan
7480;BME280;3781;42.272;22.658;2022-09-20T00:45:04;94585.75;;;8.45;nan
7480;BME280;3781;42.272;22.658;2022-09-20T00:47:38;94642.91;;;8.42;nan
7480;BME280;3781;42.272;22.658;2022-09-20T00:50:17;94634.72;;;7.93;nan
7480;BME280;3781;42.272;22.658;2022-09-20T00:52:49;94600.84;;;7.40;nan
7480;BME280;3781;42.272;22.658;2022-09-20T00:55:19;94672.25;;;7.52;nan
7480;BME280;3781;42.272;22.658;2022-09-20T00:57:47;94642.69;;;7.56;nan
7480;BME280;3781;42.272;22.658;2022-09-20T01:00:14;94635.81;;;7.44;nan
7480;BME280;3781;42.272;22.658;2022-09-20T01:02:45;94640.06;;;7.45;nan
7480;BME280;3781;42.272;22.658;2022-09-20T01:05:14;94665.94;;;7.79;nan
7480;BME280;3781;42.272;22.658;2022-09-20T01:07:45;94675.00;;;7.84;nan
7480;BME280;3781;42.272;22.658;2022-09-20T01:10:13;94688.94;;;7.59;nan
7480;BME280;3781;42.272;22.658;2022-09-20T01:12:42;94658.50;;;7.41;nan
7480;BME280;3781;42.272;22.658;2022-09-20T01:15:11;94669.06;;;7.38;nan
7480;BME280;3781;42.272;22.658;2022-09-20T01:17:42;94681.16;;;7.48;nan
7480;BME280;3781;42.272;22.658;2022-09-20T01:20:16;94692.22;;;7.50;nan
7480;BME280;3781;42.272;22.658;2022-09-20T01:23:07;94677.91;;;7.57;nan
7480;BME280;3781;42.272;22.658;2022-09-20T01:28:37;94688.38;;;7.56;nan
7480;BME280;3781;42.272;22.658;2022-09-20T01:31:09;94692.50;;;7.58;nan
7480;BME280;3781;42.272;22.658;2022-09-20T01:33:41;94690.88;;;7.80;nan
7480;BME280;3781;42.272;22.658;2022-09-20T01:36:12;94687.13;;;7.84;nan
7480;BME280;3781;42.272;22.658;2022-09-20T01:38:44;94673.34;;;7.83;nan
7480;BME280;3781;42.272;22.658;2022-09-20T01:41:16;94655.88;;;7.87;nan
7480;BME280;3781;42.272;22.658;2022-09-20T01:43:51;94680.22;;;8.17;nan
7480;BME280;3781;42.272;22.658;2022-09-20T01:46:27;94681.75;;;8.09;nan
7480;BME280;3781;42.272;22.658;2022-09-20T01:49:05;94649.72;;;7.66;nan
7480;BME280;3781;42.272;22.658;2022-09-20T02:01:17;94666.66;;;7.58;nan
7480;BME280;3781;42.272;22.658;2022-09-20T02:07:01;94673.22;;;7.63;nan
7480;BME280;3781;42.272;22.658;2022-09-20T02:09:48;94678.88;;;7.79;nan
7480;BME280;3781;42.272;22.658;2022-09-20T02:12:40;94677.47;;;7.75;nan
7480;BME280;3781;42.272;22.658;2022-09-20T02:15:19;94692.97;;;7.75;nan
7480;BME280;3781;42.272;22.658;2022-09-20T02:18:02;94685.81;;;7.78;nan
7480;BME280;3781;42.272;22.658;2022-09-20T02:20:42;94678.88;;;7.79;nan
7480;BME280;3781;42.272;22.658;2022-09-20T02:23:29;94657.81;;;7.72;nan
7480;BME280;3781;42.272;22.658;2022-09-20T02:26:08;94670.91;;;7.93;nan
7480;BME280;3781;42.272;22.658;2022-09-20T02:28:48;94672.31;;;8.08;nan
7480;BME280;3781;42.272;22.658;2022-09-20T02:31:31;94673.25;;;8.07;nan
7480;BME280;3781;42.272;22.658;2022-09-20T02:34:54;94653.03;;;7.90;nan
7480;BME280;3781;42.272;22.658;2022-09-20T02:37:52;94652.81;;;7.82;nan
7480;BME280;3781;42.272;22.658;2022-09-20T02:40:33;94639.88;;;7.71;nan
7480;BME280;3781;42.272;22.658;2022-09-20T02:43:07;94627.41;;;7.53;nan
7480;BME280;3781;42.272;22.658;2022-09-20T02:45:43;94663.84;;;7.73;nan
7480;BME280;3781;42.272;22.658;2022-09-20T02:48:14;94669.63;;;7.76;nan
7480;BME280;3781;42.272;22.658;2022-09-20T02:50:50;94668.53;;;7.79;nan
7480;BME280;3781;42.272;22.658;2022-09-20T02:53:31;94661.72;;;7.78;nan
7480;BME280;3781;42.272;22.658;2022-09-20T02:56:07;94682.19;;;8.03;nan
7480;BME280;3781;42.272;22.658;2022-09-20T02:58:45;94672.91;;;7.78;nan
7480;BME280;3781;42.272;22.658;2022-09-20T03:01:24;94692.19;;;7.96;nan
7480;BME280;3781;42.272;22.658;2022-09-20T03:04:06;94696.72;;;7.71;nan
7480;BME280;3781;42.272;22.658;2022-09-20T03:06:41;94697.41;;;7.61;nan
7480;BME280;3781;42.272;22.658;2022-09-20T03:09:14;94697.34;;;7.74;nan
7480;BME280;3781;42.272;22.658;2022-09-20T03:11:51;94663.22;;;7.47;nan
7480;BME280;3781;42.272;22.658;2022-09-20T03:14:29;94671.13;;;7.90;nan
7480;BME280;3781;42.272;22.658;2022-09-20T03:17:05;94667.38;;;7.72;nan
7480;BME280;3781;42.272;22.658;2022-09-20T03:19:49;94684.91;;;8.01;nan
7480;BME280;3781;42.272;22.658;2022-09-20T03:22:29;94668.19;;;7.94;nan
7480;BME280;3781;42.272;22.658;2022-09-20T03:25:09;94694.63;;;7.76;nan
7480;BME280;3781;42.272;22.658;2022-09-20T03:27:43;94680.03;;;7.63;nan
7480;BME280;3781;42.272;22.658;2022-09-20T03:30:28;94663.56;;;7.53;nan
7480;BME280;3781;42.272;22.658;2022-09-20T03:33:06;94701.00;;;7.83;nan
7480;BME280;3781;42.272;22.658;2022-09-20T03:35:48;94712.03;;;7.85;nan
7480;BME280;3781;42.272;22.658;2022-09-20T03:38:37;94673.94;;;7.76;nan
7480;BME280;3781;42.272;22.658;2022-09-20T03:44:26;94665.31;;;7.07;nan
7480;BME280;3781;42.272;22.658;2022-09-20T03:47:05;94696.09;;;7.45;nan
7480;BME280;3781;42.272;22.658;2022-09-20T03:49:52;94710.81;;;7.67;nan
7480;BME280;3781;42.272;22.658;2022-09-20T03:52:40;94718.69;;;7.65;nan
7480;BME280;3781;42.272;22.658;2022-09-20T03:55:41;94715.56;;;7.38;nan
7480;BME280;3781;42.272;22.658;2022-09-20T03:58:33;94693.28;;;7.13;nan
7480;BME280;3781;42.272;22.658;2022-09-20T04:01:22;94727.94;;;7.45;nan
7480;BME280;3781;42.272;22.658;2022-09-20T04:03:59;94714.91;;;7.23;nan
7480;BME280;3781;42.272;22.658;2022-09-20T04:06:54;94704.09;;;7.18;nan
7480;BME280;3781;42.272;22.658;2022-09-20T04:09:44;94717.91;;;7.06;nan
7480;BME280;3781;42.272;22.658;2022-09-20T04:12:31;94721.06;;;7.10;nan
7480;BME280;3781;42.272;22.658;2022-09-20T04:15:17;94729.13;;;7.29;nan
7480;BME280;3781;42.272;22.658;2022-09-20T04:17:56;94727.75;;;7.36;nan
7480;BME280;3781;42.272;22.658;2022-09-20T04:20:33;94736.47;;;7.35;nan
7480;BME280;3781;42.272;22.658;2022-09-20T04:23:11;94720.22;;;7.22;nan
7480;BME280;3781;42.272;22.658;2022-09-20T04:25:41;94731.44;;;7.44;nan
7480;BME280;3781;42.272;22.658;2022-09-20T04:28:18;94728.28;;;7.52;nan
7480;BME280;3781;42.272;22.658;2022-09-20T04:30:48;94724.53;;;7.56;nan
7480;BME280;3781;42.272;22.658;2022-09-20T04:33:23;94739.38;;;7.65;nan
7480;BME280;3781;42.272;22.658;2022-09-20T04:36:00;94745.81;;;7.59;nan
7480;BME280;3781;42.272;22.658;2022-09-20T04:38:54;94715.81;;;7.46;nan
7480;BME280;3781;42.272;22.658;2022-09-20T04:44:42;94742.47;;;7.46;nan
7480;BME280;3781;42.272;22.658;2022-09-20T04:50:46;94759.19;;;7.99;nan
7480;BME280;3781;42.272;22.658;2022-09-20T04:53:48;94757.47;;;8.11;nan
7480;BME280;3781;42.272;22.658;2022-09-20T04:56:19;94760.66;;;8.25;nan
7480;BME280;3781;42.272;22.658;2022-09-20T04:59:04;94755.03;;;8.31;nan
7480;BME280;3781;42.272;22.658;2022-09-20T05:11:22;94769.69;;;9.08;nan
7480;BME280;3781;42.272;22.658;2022-09-20T05:14:06;94696.66;;;8.72;nan
7480;BME280;3781;42.272;22.658;2022-09-20T05:17:03;94784.97;;;9.00;nan
7480;BME280;3781;42.272;22.658;2022-09-20T05:19:42;94781.00;;;8.85;nan
7480;BME280;3781;42.272;22.658;2022-09-20T05:22:39;94781.47;;;8.79;nan
7480;BME280;3781;42.272;22.658;2022-09-20T05:25:29;94781.75;;;8.76;nan
7480;BME280;3781;42.272;22.658;2022-09-20T05:28:11;94755.84;;;8.54;nan
7480;BME280;3781;42.272;22.658;2022-09-20T05:30:45;94766.22;;;8.65;nan
7480;BME280;3781;42.272;22.658;2022-09-20T05:33:19;94771.38;;;8.54;nan
7480;BME280;3781;42.272;22.658;2022-09-20T05:35:54;94745.97;;;8.48;nan
7480;BME280;3781;42.272;22.658;2022-09-20T05:38:33;94749.00;;;8.75;nan
7480;BME280;3781;42.272;22.658;2022-09-20T05:41:10;94768.50;;;9.13;nan
7480;BME280;3781;42.272;22.658;2022-09-20T05:43:53;94772.56;;;9.37;nan
7480;BME280;3781;42.272;22.658;2022-09-20T05:46:34;94769.41;;;9.54;nan
7480;BME280;3781;42.272;22.658;2022-09-20T05:49:13;94718.22;;;9.36;nan
7480;BME280;3781;42.272;22.658;2022-09-20T05:52:01;94704.50;;;9.24;nan
7480;BME280;3781;42.272;22.658;2022-09-20T05:54:49;94764.88;;;9.67;nan
7480;BME280;3781;42.272;22.658;2022-09-20T05:57:28;94763.44;;;9.95;nan
7480;BME280;3781;42.272;22.658;2022-09-20T06:00:03;94759.72;;;10.09;nan
7480;BME280;3781;42.272;22.658;2022-09-20T06:02:38;94780.03;;;10.45;nan
7480;BME280;3781;42.272;22.658;2022-09-20T06:05:25;94788.66;;;11.25;nan
7480;BME280;3781;42.272;22.658;2022-09-20T06:08:10;94794.69;;;12.40;nan
7480;BME280;3781;42.272;22.658;2022-09-20T06:10:47;94796.63;;;13.84;nan
7480;BME280;3781;42.272;22.658;2022-09-20T06:16:35;94809.66;;;16.13;nan
7480;BME280;3781;42.272;22.658;2022-09-20T06:19:10;94794.47;;;17.12;nan
7480;BME280;3781;42.272;22.658;2022-09-20T06:21:48;94818.00;;;18.14;nan
7480;BME280;3781;42.272;22.658;2022-09-20T06:24:23;94813.00;;;19.60;nan
7480;BME280;3781;42.272;22.658;2022-09-20T06:26:54;94798.69;;;20.19;nan
7480;BME280;3781;42.272;22.658;2022-09-20T06:29:28;94814.53;;;20.61;nan
7480;BME280;3781;42.272;22.658;2022-09-20T06:31:57;94823.19;;;20.76;nan
7480;BME280;3781;42.272;22.658;2022-09-20T06:34:25;94821.75;;;21.57;nan
7480;BME280;3781;42.272;22.658;2022-09-20T06:37:01;94817.81;;;20.63;nan
7480;BME280;3781;42.272;22.658;2022-09-20T06:39:52;94803.63;;;20.22;nan
7480;BME280;3781;42.272;22.658;2022-09-20T06:42:40;94811.84;;;19.98;nan
7480;BME280;3781;42.272;22.658;2022-09-20T06:45:09;94820.22;;;18.70;nan
7480;BME280;3781;42.272;22.658;2022-09-20T06:47:37;94804.06;;;17.44;nan
7480;BME280;3781;42.272;22.658;2022-09-20T06:50:05;94788.38;;;16.24;nan
7480;BME280;3781;42.272;22.658;2022-09-20T06:52:32;94792.63;;;16.17;nan
7480;BME280;3781;42.272;22.658;2022-09-20T06:55:00;94800.25;;;15.70;nan
7480;BME280;3781;42.272;22.658;2022-09-20T06:57:34;94753.16;;;15.29;nan
7480;BME280;3781;42.272;22.658;2022-09-20T07:00:03;94798.94;;;15.66;nan
7480;BME280;3781;42.272;22.658;2022-09-20T07:02:29;94784.41;;;15.30;nan
7480;BME280;3781;42.272;22.658;2022-09-20T07:04:58;94802.13;;;15.02;nan
7480;BME280;3781;42.272;22.658;2022-09-20T07:07:24;94765.63;;;15.01;nan
7480;BME280;3781;42.272;22.658;2022-09-20T07:09:51;94810.44;;;14.98;nan
7480;BME280;3781;42.272;22.658;2022-09-20T07:12:18;94781.53;;;15.07;nan
7480;BME280;3781;42.272;22.658;2022-09-20T07:14:45;94787.28;;;15.11;nan
7480;BME280;3781;42.272;22.658;2022-09-20T07:17:12;94809.16;;;16.34;nan
7480;BME280;3781;42.272;22.658;2022-09-20T07:19:39;94818.84;;;17.37;nan
7480;BME280;3781;42.272;22.658;2022-09-20T07:22:07;94795.28;;;17.67;nan
7480;BME280;3781;42.272;22.658;2022-09-20T07:24:34;94808.84;;;19.36;nan
7480;BME280;3781;42.272;22.658;2022-09-20T07:27:02;94823.19;;;20.76;nan
7480;BME280;3781;42.272;22.658;2022-09-20T07:29:30;94824.28;;;21.78;nan
7480;BME280;3781;42.272;22.658;2022-09-20T07:31:57;94820.28;;;23.01;nan
7480;BME280;3781;42.272;22.658;2022-09-20T07:34:23;94824.56;;;23.09;nan
7480;BME280;3781;42.272;22.658;2022-09-20T07:36:51;94825.78;;;23.06;nan
7480;BME280;3781;42.272;22.658;2022-09-20T07:39:19;94808.16;;;23.64;nan
7480;BME280;3781;42.272;22.658;2022-09-20T07:41:46;94830.34;;;24.34;nan
7480;BME280;3781;42.272;22.658;2022-09-20T07:44:16;94810.50;;;25.23;nan
7480;BME280;3781;42.272;22.658;2022-09-20T07:46:50;94808.06;;;26.49;nan
7480;BME280;3781;42.272;22.658;2022-09-20T07:49:17;94825.63;;;26.38;nan
7480;BME280;3781;42.272;22.658;2022-09-20T07:51:44;94826.88;;;24.40;nan
7480;BME280;3781;42.272;22.658;2022-09-20T07:54:11;94800.25;;;24.15;nan
7480;BME280;3781;42.272;22.658;2022-09-20T07:56:39;94812.91;;;23.30;nan
7480;BME280;3781;42.272;22.658;2022-09-20T07:59:07;94797.00;;;22.51;nan
7480;BME280;3781;42.272;22.658;2022-09-20T08:01:34;94801.28;;;22.32;nan
7480;BME280;3781;42.272;22.658;2022-09-20T08:04:03;94799.59;;;20.75;nan
7480;BME280;3781;42.272;22.658;2022-09-20T08:06:31;94784.75;;;21.63;nan
7480;BME280;3781;42.272;22.658;2022-09-20T08:08:58;94802.69;;;21.68;nan
7480;BME280;3781;42.272;22.658;2022-09-20T08:11:25;94809.94;;;20.97;nan
7480;BME280;3781;42.272;22.658;2022-09-20T08:13:57;94805.94;;;19.96;nan
7480;BME280;3781;42.272;22.658;2022-09-20T08:16:25;94808.81;;;20.58;nan
7480;BME280;3781;42.272;22.658;2022-09-20T08:18:53;94806.50;;;23.76;nan
7480;BME280;3781;42.272;22.658;2022-09-20T08:21:22;94810.69;;;24.79;nan
7480;BME280;3781;42.272;22.658;2022-09-20T08:23:49;94774.88;;;22.65;nan
7480;BME280;3781;42.272;22.658;2022-09-20T08:26:18;94804.75;;;21.79;nan
7480;BME280;3781;42.272;22.658;2022-09-20T08:28:46;94799.22;;;20.29;nan
7480;BME280;3781;42.272;22.658;2022-09-20T08:31:17;94790.19;;;19.23;nan
7480;BME280;3781;42.272;22.658;2022-09-20T08:33:45;94780.31;;;18.81;nan
7480;BME280;3781;42.272;22.658;2022-09-20T08:36:14;94781.75;;;19.27;nan
7480;BME280;3781;42.272;22.658;2022-09-20T08:38:42;94786.50;;;19.61;nan
7480;BME280;3781;42.272;22.658;2022-09-20T08:41:11;94789.25;;;21.01;nan
7480;BME280;3781;42.272;22.658;2022-09-20T08:43:43;94784.72;;;21.98;nan
7480;BME280;3781;42.272;22.658;2022-09-20T08:46:14;94758.56;;;23.01;nan
7480;BME280;3781;42.272;22.658;2022-09-20T08:48:43;94765.84;;;24.89;nan
7480;BME280;3781;42.272;22.658;2022-09-20T08:51:13;94770.56;;;24.56;nan
7480;BME280;3781;42.272;22.658;2022-09-20T08:53:44;94777.66;;;24.93;nan
7480;BME280;3781;42.272;22.658;2022-09-20T08:56:12;94784.09;;;23.72;nan
7480;BME280;3781;42.272;22.658;2022-09-20T08:58:39;94757.66;;;25.33;nan
7480;BME280;3781;42.272;22.658;2022-09-20T09:01:06;94763.44;;;25.67;nan
7480;BME280;3781;42.272;22.658;2022-09-20T09:03:33;94771.44;;;24.50;nan
7480;BME280;3781;42.272;22.658;2022-09-20T09:06:01;94767.16;;;20.74;nan
7480;BME280;3781;42.272;22.658;2022-09-20T09:08:35;94750.59;;;20.38;nan
7480;BME280;3781;42.272;22.658;2022-09-20T09:11:05;94741.88;;;21.68;nan
7480;BME280;3781;42.272;22.658;2022-09-20T09:13:38;94749.63;;;23.66;nan
7480;BME280;3781;42.272;22.658;2022-09-20T09:16:11;94743.69;;;25.74;nan
7480;BME280;3781;42.272;22.658;2022-09-20T09:18:41;94739.16;;;25.02;nan
7480;BME280;3781;42.272;22.658;2022-09-20T09:21:17;94739.19;;;26.64;nan
7480;BME280;3781;42.272;22.658;2022-09-20T09:23:50;94741.53;;;24.61;nan
7480;BME280;3781;42.272;22.658;2022-09-20T09:26:20;94729.41;;;24.40;nan
7480;BME280;3781;42.272;22.658;2022-09-20T09:29:08;94733.84;;;24.78;nan
7480;BME280;3781;42.272;22.658;2022-09-20T09:31:39;94716.72;;;24.49;nan
7480;BME280;3781;42.272;22.658;2022-09-20T09:34:22;94679.81;;;25.45;nan
7480;BME280;3781;42.272;22.658;2022-09-20T09:36:50;94720.31;;;27.35;nan
7480;BME280;3781;42.272;22.658;2022-09-20T09:39:23;94737.50;;;27.39;nan
7480;BME280;3781;42.272;22.658;2022-09-20T09:41:50;94723.34;;;27.15;nan
7480;BME280;3781;42.272;22.658;2022-09-20T09:44:22;94711.28;;;24.62;nan
7480;BME280;3781;42.272;22.658;2022-09-20T09:46:50;94694.16;;;21.83;nan
7480;BME280;3781;42.272;22.658;2022-09-20T09:49:20;94688.09;;;20.66;nan
7480;BME280;3781;42.272;22.658;2022-09-20T09:52:02;94686.75;;;21.71;nan
7480;BME280;3781;42.272;22.658;2022-09-20T09:54:31;94711.81;;;21.82;nan
7480;BME280;3781;42.272;22.658;2022-09-20T09:57:13;94704.50;;;21.24;nan
7480;BME280;3781;42.272;22.658;2022-09-20T09:59:58;94690.50;;;22.03;nan
7480;BME280;3781;42.272;22.658;2022-09-20T10:02:47;94711.56;;;21.64;nan
7480;BME280;3781;42.272;22.658;2022-09-20T10:05:22;94681.06;;;23.12;nan
7480;BME280;3781;42.272;22.658;2022-09-20T10:08:00;94708.97;;;23.78;nan
7480;BME280;3781;42.272;22.658;2022-09-20T10:10:35;94709.88;;;22.89;nan
7480;BME280;3781;42.272;22.658;2022-09-20T10:13:14;94707.66;;;22.33;nan
7480;BME280;3781;42.272;22.658;2022-09-20T10:15:49;94680.34;;;22.79;nan
7480;BME280;3781;42.272;22.658;2022-09-20T10:18:27;94704.19;;;22.79;nan
7480;BME280;3781;42.272;22.658;2022-09-20T10:21:07;94680.34;;;22.85;nan
7480;BME280;3781;42.272;22.658;2022-09-20T10:23:50;94680.31;;;22.92;nan
7480;BME280;3781;42.272;22.658;2022-09-20T10:26:28;94692.53;;;24.01;nan
7480;BME280;3781;42.272;22.658;2022-09-20T10:29:07;94696.16;;;24.62;nan
7480;BME280;3781;42.272;22.658;2022-09-20T10:31:49;94699.44;;;25.25;nan
7480;BME280;3781;42.272;22.658;2022-09-20T10:34:39;94697.50;;;24.96;nan
7480;BME280;3781;42.272;22.658;2022-09-20T10:37:16;94702.47;;;25.95;nan
7480;BME280;3781;42.272;22.658;2022-09-20T10:39:56;94700.91;;;25.39;nan
7480;BME280;3781;42.272;22.658;2022-09-20T10:42:32;94682.59;;;25.68;nan
7480;BME280;3781;42.272;22.658;2022-09-20T10:45:23;94703.81;;;27.73;nan
7480;BME280;3781;42.272;22.658;2022-09-20T10:47:55;94692.59;;;28.44;nan
7480;BME280;3781;42.272;22.658;2022-09-20T10:50:32;94690.31;;;28.35;nan
7480;BME280;3781;42.272;22.658;2022-09-20T10:53:23;94678.78;;;27.62;nan
7480;BME280;3781;42.272;22.658;2022-09-20T10:56:02;94666.97;;;25.05;nan
7480;BME280;3781;42.272;22.658;2022-09-20T10:58:51;94684.84;;;22.72;nan
7480;BME280;3781;42.272;22.658;2022-09-20T11:01:25;94678.31;;;23.45;nan
7480;BME280;3781;42.272;22.658;2022-09-20T11:04:30;94676.38;;;24.34;nan
7480;BME280;3781;42.272;22.658;2022-09-20T11:07:09;94659.03;;;24.56;nan
7480;BME280;3781;42.272;22.658;2022-09-20T11:09:47;94669.09;;;26.40;nan
7480;BME280;3781;42.272;22.658;2022-09-20T11:12:22;94666.78;;;26.55;nan
7480;BME280;3781;42.272;22.658;2022-09-20T11:14:55;94656.50;;;27.85;nan
7480;BME280;3781;42.272;22.658;2022-09-20T11:17:26;94647.78;;;26.86;nan
7480;BME280;3781;42.272;22.658;2022-09-20T11:19:59;94660.72;;;26.25;nan
7480;BME280;3781;42.272;22.658;2022-09-20T11:22:34;94664.22;;;26.60;nan
7480;BME280;3781;42.272;22.658;2022-09-20T11:25:11;94661.31;;;27.71;nan
7480;BME280;3781;42.272;22.658;2022-09-20T11:27:43;94629.38;;;26.85;nan
7480;BME280;3781;42.272;22.658;2022-09-20T11:30:15;94637.91;;;25.88;nan
7480;BME280;3781;42.272;22.658;2022-09-20T11:32:47;94648.19;;;27.30;nan
7480;BME280;3781;42.272;22.658;2022-09-20T11:35:24;94644.34;;;26.74;nan
7480;BME280;3781;42.272;22.658;2022-09-20T11:38:00;94635.03;;;26.54;nan
7480;BME280;3781;42.272;22.658;2022-09-20T11:40:31;94643.31;;;27.50;nan
7480;BME280;3781;42.272;22.658;2022-09-20T11:43:01;94624.19;;;27.41;nan
7480;BME280;3781;42.272;22.658;2022-09-20T11:45:30;94641.78;;;27.82;nan
7480;BME280;3781;42.272;22.658;2022-09-20T11:48:02;94604.50;;;28.65;nan
7480;BME280;3781;42.272;22.658;2022-09-20T11:50:48;94612.91;;;31.04;nan
7480;BME280;3781;42.272;22.658;2022-09-20T11:53:34;94618.56;;;31.02;nan
7480;BME280;3781;42.272;22.658;2022-09-20T11:56:10;94620.97;;;30.67;nan
7480;BME280;3781;42.272;22.658;2022-09-20T11:58:56;94621.78;;;29.77;nan
7480;BME280;3781;42.272;22.658;2022-09-20T12:01:26;94614.69;;;28.52;nan
7480;BME280;3781;42.272;22.658;2022-09-20T12:03:55;94621.25;;;29.16;nan
7480;BME280;3781;42.272;22.658;2022-09-20T12:06:28;94619.28;;;30.24;nan
7480;BME280;3781;42.272;22.658;2022-09-20T12:08:58;94611.53;;;32.50;nan
7480;BME280;3781;42.272;22.658;2022-09-20T12:11:28;94613.09;;;32.92;nan
7480;BME280;3781;42.272;22.658;2022-09-20T12:14:02;94594.28;;;32.01;nan
7480;BME280;3781;42.272;22.658;2022-09-20T12:16:38;94596.97;;;29.00;nan
7480;BME280;3781;42.272;22.658;2022-09-20T12:19:09;94574.34;;;28.70;nan
7480;BME280;3781;42.272;22.658;2022-09-20T12:22:15;94602.31;;;27.84;nan
7480;BME280;3781;42.272;22.658;2022-09-20T12:24:42;94588.38;;;28.44;nan
7480;BME280;3781;42.272;22.658;2022-09-20T12:30:17;94587.94;;;25.90;nan
7480;BME280;3781;42.272;22.658;2022-09-20T12:32:53;94567.28;;;24.78;nan
7480;BME280;3781;42.272;22.658;2022-09-20T12:35:58;94559.06;;;26.28;nan
7480;BME280;3781;42.272;22.658;2022-09-20T12:41:20;94561.75;;;30.32;nan
7480;BME280;3781;42.272;22.658;2022-09-20T12:44:03;94580.31;;;31.32;nan
7480;BME280;3781;42.272;22.658;2022-09-20T12:46:36;94569.00;;;32.17;nan
7480;BME280;3781;42.272;22.658;2022-09-20T12:49:30;94569.56;;;32.44;nan
7480;BME280;3781;42.272;22.658;2022-09-20T12:52:22;94582.97;;;32.95;nan
7480;BME280;3781;42.272;22.658;2022-09-20T12:55:08;94573.31;;;30.06;nan
7480;BME280;3781;42.272;22.658;2022-09-20T12:57:36;94560.97;;;30.05;nan
7480;BME280;3781;42.272;22.658;2022-09-20T13:00:06;94569.16;;;30.98;nan
7480;BME280;3781;42.272;22.658;2022-09-20T13:02:53;94539.44;;;32.42;nan
7480;BME280;3781;42.272;22.658;2022-09-20T13:05:34;94573.28;;;33.68;nan
7480;BME280;3781;42.272;22.658;2022-09-20T13:08:11;94568.94;;;36.15;nan
7480;BME280;3781;42.272;22.658;2022-09-20T13:10:43;94566.09;;;37.62;nan
7480;BME280;3781;42.272;22.658;2022-09-20T13:13:30;94560.75;;;38.65;nan
7480;BME280;3781;42.272;22.658;2022-09-20T13:15:58;94567.69;;;38.71;nan
7480;BME280;3781;42.272;22.658;2022-09-20T13:18:33;94555.75;;;35.52;nan
7480;BME280;3781;42.272;22.658;2022-09-20T13:21:01;94547.81;;;35.37;nan
7480;BME280;3781;42.272;22.658;2022-09-20T13:23:37;94566.88;;;34.07;nan
7480;BME280;3781;42.272;22.658;2022-09-20T13:26:10;94558.16;;;31.62;nan
7480;BME280;3781;42.272;22.658;2022-09-20T13:28:43;94548.22;;;29.37;nan
7480;BME280;3781;42.272;22.658;2022-09-20T13:31:22;94546.41;;;29.96;nan
7480;BME280;3781;42.272;22.658;2022-09-20T13:33:50;94538.09;;;32.05;nan
7480;BME280;3781;42.272;22.658;2022-09-20T13:36:23;94544.03;;;32.02;nan
7480;BME280;3781;42.272;22.658;2022-09-20T13:38:52;94543.19;;;29.94;nan
7480;BME280;3781;42.272;22.658;2022-09-20T13:41:19;94533.84;;;28.99;nan
7480;BME280;3781;42.272;22.658;2022-09-20T13:43:48;94536.97;;;27.42;nan
7480;BME280;3781;42.272;22.658;2022-09-20T13:46:21;94536.31;;;25.91;nan
7480;BME280;3781;42.272;22.658;2022-09-20T13:49:06;94534.72;;;24.64;nan
7480;BME280;3781;42.272;22.658;2022-09-20T13:51:35;94538.03;;;23.74;nan
7480;BME280;3781;42.272;22.658;2022-09-20T13:54:17;94539.28;;;23.03;nan
7480;BME280;3781;42.272;22.658;2022-09-20T13:56:46;94542.72;;;22.52;nan
7480;BME280;3781;42.272;22.658;2022-09-20T13:59:13;94543.81;;;22.12;nan
7480;BME280;3781;42.272;22.658;2022-09-20T14:01:44;94534.00;;;22.32;nan
7480;BME280;3781;42.272;22.658;2022-09-20T14:04:19;94543.56;;;22.33;nan
7480;BME280;3781;42.272;22.658;2022-09-20T14:06:47;94532.13;;;22.46;nan
7480;BME280;3781;42.272;22.658;2022-09-20T14:09:20;94535.56;;;23.10;nan
7480;BME280;3781;42.272;22.658;2022-09-20T14:11:49;94542.44;;;22.80;nan
7480;BME280;3781;42.272;22.658;2022-09-20T14:14:17;94535.34;;;23.50;nan
7480;BME280;3781;42.272;22.658;2022-09-20T14:16:45;94520.78;;;25.05;nan
7480;BME280;3781;42.272;22.658;2022-09-20T14:19:16;94531.09;;;27.56;nan
7480;BME280;3781;42.272;22.658;2022-09-20T14:21:44;94545.38;;;30.70;nan
7480;BME280;3781;42.272;22.658;2022-09-20T14:24:29;94552.34;;;32.00;nan
7480;BME280;3781;42.272;22.658;2022-09-20T14:27:15;94552.09;;;33.51;nan
7480;BME280;3781;42.272;22.658;2022-09-20T14:29:44;94567.38;;;33.61;nan
7480;BME280;3781;42.272;22.658;2022-09-20T14:32:22;94554.53;;;33.96;nan
7480;BME280;3781;42.272;22.658;2022-09-20T14:34:58;94552.09;;;34.67;nan
7480;BME280;3781;42.272;22.658;2022-09-20T14:37:28;94567.44;;;34.38;nan
7480;BME280;3781;42.272;22.658;2022-09-20T14:39:57;94540.25;;;32.03;nan
7480;BME280;3781;42.272;22.658;2022-09-20T14:42:29;94562.44;;;30.22;nan
7480;BME280;3781;42.272;22.658;2022-09-20T14:44:56;94561.19;;;28.85;nan
7480;BME280;3781;42.272;22.658;2022-09-20T14:47:34;94557.16;;;26.86;nan
7480;BME280;3781;42.272;22.658;2022-09-20T14:50:17;94545.19;;;25.73;nan
7480;BME280;3781;42.272;22.658;2022-09-20T14:53:02;94556.22;;;25.47;nan
7480;BME280;3781;42.272;22.658;2022-09-20T14:55:30;94566.69;;;26.59;nan
7480;BME280;3781;42.272;22.658;2022-09-20T14:57:59;94556.88;;;28.12;nan
7480;BME280;3781;42.272;22.658;2022-09-20T15:00:28;94556.78;;;29.39;nan
7480;BME280;3781;42.272;22.658;2022-09-20T15:03:02;94570.75;;;29.67;nan
7480;BME280;3781;42.272;22.658;2022-09-20T15:05:31;94546.88;;;30.19;nan